Hauptseite
METAR-TAF:

METAR-TAF

Flughäfen :

Aigen im Ennstal, Österreich

Breite: 47-32N, Länge: 014-08E, Höhe: 638 m

METAR: fehlend

Zeit: 21:44 (19:44 UTC)

Prognose

Neuester Wetterbericht von vor 8 Stunden und 29 Minuten, um 11:15 UTC
Gültige Prognose vom 05 um 12 UTC bis 05 um 21 UTC
Wind 3 kt aus unterschiedlichen Richtungen
Sichtweite 10 km oder mehr
Leicht bewölkt in der Höhe von 1800 ft
Aufgelockert bewölkt in der Höhe von 2500 ft
Durchbrochene Bewölkung in der Höhe von 3500 ft

TAF: LOXA 051115Z 0512/0521 VRB03KT 9999 FEW018 SCT025 BKN035

Wetterbeobachtungen und Prognosen von mehr als 4000 Flughäfen (METAR und TAF Bericht).

Die verfügbaren Stationen werden durch gelbe und rote Markierungen auf der Karte dargestellt.

Führen Sie die Maus auf sie, um den Namen der Station zu sehen.

Darauf klicken, um die Beobachtung von Wetterbeobachtungen und Prognosen zu sehen.

Um die Karte zu ändern : klicken Sie auf den grünen Tasten mit einem schwarzen Kreuz Zum Vergrößern, auf den grünen Button mit einem Gedankenstrich zu verkleinern, oder auf die grünen Pfeile für benachbarte Karten.


METAR-TAF: